University of Wyoming, Wyoming
Current Conditions -  °F | °C
As of 5:53 AM on Thursday 18 Dec 2014 (Local Time) from KLAR Reporting Station
Clear Clear  
Wind Chill:   Ceiling: Unl
Heat Index: 13°   Visibility: 10mi
Dew Point:   Wind: 8mph
Humidity: 84%   Direction: 250°WSW
Pressure: 29.97"   Gusts: NA
Location:  41.4218°N, 105.605°W
Report Text: KLAR 181253Z AUTO 25007KT 10SM CLR M11/M13 A2997 RMK AO2 SLP198 T11061128
Loading
Personal Weather Stations






























Interactive Weather Map New forecast layout! Learn more

10-Day Weather Forecast

Advertisements
Track Severe Weather on mobile